Página principal
METAR-TAF:

METAR-TAF

Aeroportos :

Santa Maria, Açores, Portugal

Aeroporto de Santa Maria

latitude: 36-58N, longitude: 025-10W, altura: 100 m

Observação actual do tempo

O boletim foi feito há 30 minutos, às 01:30 UTC
Vento 2 kt com direcção variável
Temperatura 18°C
Humidade 88%
Pressão 1028 hPa
Visibilidade 10 km ou mais
Poucas nuvensa uma altura de 1200 ft

METAR: LPAZ 240130Z VRB02KT 9999 FEW012 18/16 Q1028

Hora: 02:00 (02:00 UTC)

Previsão

O boletim foi feito há 9 horas e 0 minutos, às 17:00 UTC
Previsão válida de 23 às 18 UTC a 24 às 24 UTC
Vento 8 kt de es-nordeste
Visibilidade 10 km ou mais
Nuvens dispersasa uma altura de 1500 ft
Temporariamente
de 23 às 18 UTC a 23 às 24 UTC
Poucas nuvensa uma altura de 1200 ft
Nuvens dispersasa uma altura de 2500 ft

TAF: LPAZ 231700Z 2318/2424 06008KT 9999 SCT015 TEMPO 2318/2324 FEW012 SCT025

Observações e previsões do tempo de mais de 4000 aeroportos (mensagens METAR e TAF).

As estações disponíveis são os pontos amarelos e vermelhos sobre o mapa.

Mova o rato sobre o mapa para ver o nome da estação.

Depois clique no ponto para visualizar as observações e previsões meteorológicas.

Para alterar o mapa : clique nos botões verdes com uma cruz preta para aumentar o zoom; no botão verde com uma pitada de zoom; ou nas setas verdes para mapas adjacentes.


METAR-TAF: